Time;durP1;ratioP1;P1;durP2;ratioP2;P2;SDS_P1;SDS_P2;PMS_P1;PMS_P2;Temp;Humidity;BMP_temperature;BMP_pressure;BME280_temperature;BME280_humidity;BME280_pressure;Samples;Min_cycle;Max_cycle;Signal;HPM_P1;HPM_P2
2022/04/07 04:00:20;;;;;;;1.40;1.30;;;9.70;99.90;;;;;;6098014;23;20628;-80
2022/04/07 04:02:48;;;;;;;1.70;1.30;;;9.70;99.90;;;;;;5067196;28;20482;-80
2022/04/07 04:05:15;;;;;;;1.40;1.30;;;9.70;99.90;;;;;;5069458;28;20451;-80
2022/04/07 04:07:42;;;;;;;1.30;1.20;;;9.70;99.90;;;;;;5068235;28;20496;-80
2022/04/07 04:10:09;;;;;;;1.57;1.47;;;9.80;99.90;;;;;;5068724;28;20470;-81
2022/04/07 04:12:36;;;;;;;1.43;1.33;;;9.70;99.90;;;;;;5055213;28;21302;-80
2022/04/07 04:15:04;;;;;;;1.20;1.10;;;9.70;99.90;;;;;;5047947;28;20453;-80
2022/04/07 04:17:33;;;;;;;2.10;1.23;;;9.70;99.90;;;;;;5047586;28;20449;-80
2022/04/07 04:20:01;;;;;;;1.43;1.33;;;9.70;99.90;;;;;;5054793;28;20822;-80
2022/04/07 04:22:28;;;;;;;1.30;1.20;;;9.70;99.90;;;;;;5068957;28;20483;-80
2022/04/07 04:24:54;;;;;;;1.43;1.33;;;9.70;99.90;;;;;;5072376;28;20462;-80
2022/04/07 04:27:21;;;;;;;1.50;1.40;;;9.70;99.90;;;;;;5072302;28;20589;-81
2022/04/07 04:29:48;;;;;;;6.93;1.50;;;9.70;99.90;;;;;;5069596;28;20449;-81
2022/04/07 04:32:15;;;;;;;1.10;1.10;;;9.70;99.90;;;;;;5053857;28;20473;-79
2022/04/07 04:34:43;;;;;;;1.87;1.30;;;9.70;99.90;;;;;;5054306;28;20927;-79
2022/04/07 04:37:10;;;;;;;1.50;1.40;;;9.70;99.90;;;;;;5052555;28;20827;-81
2022/04/07 04:39:37;;;;;;;2.10;1.20;;;9.70;99.90;;;;;;5039246;28;20541;-80
2022/04/07 04:42:05;;;;;;;2.20;2.00;;;9.70;99.90;;;;;;5032378;28;20561;-80
2022/04/07 04:44:32;;;;;;;2.27;1.40;;;9.80;99.90;;;;;;5033103;28;20754;-80
2022/04/07 04:46:59;;;;;;;1.53;1.43;;;9.80;99.90;;;;;;5034293;28;20489;-80
2022/04/07 04:49:25;;;;;;;2.17;1.50;;;9.80;99.90;;;;;;5046989;28;20486;-79
2022/04/07 04:51:54;;;;;;;1.40;1.30;;;9.80;99.90;;;;;;5041383;28;20547;-80
2022/04/07 04:54:21;;;;;;;1.27;1.10;;;9.80;99.90;;;;;;5071687;28;20448;-80
2022/04/07 04:56:47;;;;;;;1.40;1.30;;;9.80;99.90;;;;;;5070161;28;20455;-80
2022/04/07 04:59:14;;;;;;;2.30;1.50;;;9.80;99.90;;;;;;5070724;28;20544;-79
2022/04/07 05:01:41;;;;;;;1.47;1.37;;;9.80;99.90;;;;;;5044960;28;21013;-70
2022/04/07 05:04:08;;;;;;;1.30;1.20;;;9.90;99.90;;;;;;5043314;28;20544;-70
2022/04/07 05:06:35;;;;;;;1.40;1.30;;;9.90;99.90;;;;;;5065974;28;20584;-79
2022/04/07 05:09:04;;;;;;;1.50;1.40;;;9.90;99.90;;;;;;5062923;28;20461;-79
2022/04/07 05:11:31;;;;;;;1.40;1.30;;;9.90;99.90;;;;;;5054422;28;20477;-79
2022/04/07 05:13:58;;;;;;;1.17;1.10;;;10.00;99.90;;;;;;5050276;28;20945;-79
2022/04/07 05:16:24;;;;;;;1.77;1.27;;;10.00;99.90;;;;;;5050016;28;20503;-80
2022/04/07 05:18:52;;;;;;;1.83;1.27;;;10.00;99.90;;;;;;5042486;28;20468;-79
2022/04/07 05:21:19;;;;;;;1.30;1.20;;;10.00;99.90;;;;;;5044715;28;20571;-79
2022/04/07 05:23:49;;;;;;;1.57;1.20;;;10.00;99.90;;;;;;5049561;28;20501;-80
2022/04/07 05:26:17;;;;;;;1.33;1.07;;;10.10;99.90;;;;;;5049612;28;20498;-79
2022/04/07 05:28:44;;;;;;;1.10;1.10;;;10.00;99.90;;;;;;5044146;28;20462;-80
2022/04/07 05:31:11;;;;;;;1.50;1.40;;;10.00;99.90;;;;;;5057708;28;20556;-79
2022/04/07 05:33:38;;;;;;;2.53;1.30;;;10.00;99.90;;;;;;5063860;28;20533;-79
2022/04/07 05:36:07;;;;;;;1.90;1.20;;;10.10;99.90;;;;;;5049622;28;20460;-81
2022/04/07 05:38:34;;;;;;;1.00;1.00;;;10.10;99.90;;;;;;5045590;28;21048;-83
2022/04/07 05:41:00;;;;;;;1.40;1.30;;;10.20;99.90;;;;;;5029287;28;21059;-80
2022/04/07 05:43:29;;;;;;;1.37;1.20;;;10.10;99.90;;;;;;5035528;28;20456;-80
2022/04/07 05:45:56;;;;;;;1.13;1.13;;;10.20;99.90;;;;;;5070574;28;20452;-79
2022/04/07 05:48:23;;;;;;;1.67;1.53;;;10.20;99.90;;;;;;5066650;28;20899;-80
2022/04/07 05:50:49;;;;;;;1.20;1.10;;;10.20;99.90;;;;;;5049399;28;20488;-79
2022/04/07 05:53:16;;;;;;;1.23;1.10;;;10.20;99.90;;;;;;5050899;28;20452;-81
2022/04/07 05:55:43;;;;;;;2.30;1.23;;;10.20;99.90;;;;;;5052731;28;20461;-80
2022/04/07 05:58:13;;;;;;;2.60;1.30;;;10.20;99.90;;;;;;5049723;28;20453;-80
2022/04/07 06:00:42;;;;;;;1.10;1.10;;;10.30;99.90;;;;;;5030951;28;20490;-79
2022/04/07 06:03:09;;;;;;;1.27;1.17;;;10.30;99.90;;;;;;5030235;28;20508;-80
2022/04/07 06:05:36;;;;;;;1.23;1.00;;;10.30;99.90;;;;;;5050698;28;20465;-80
2022/04/07 06:08:04;;;;;;;5.87;1.13;;;10.30;99.90;;;;;;5050038;28;20519;-80
2022/04/07 06:10:31;;;;;;;2.00;1.03;;;10.30;99.90;;;;;;5034165;28;20458;-79
2022/04/07 06:12:58;;;;;;;1.23;1.10;;;10.30;99.90;;;;;;5028724;28;20941;-79
2022/04/07 06:15:24;;;;;;;1.53;1.40;;;10.30;99.90;;;;;;5028021;28;20549;-80
2022/04/07 06:17:54;;;;;;;1.93;1.20;;;10.30;99.90;;;;;;5040114;28;20495;-80
2022/04/07 06:20:22;;;;;;;0.90;0.90;;;10.40;99.90;;;;;;5050520;28;20460;-80
2022/04/07 06:22:49;;;;;;;1.13;1.03;;;10.40;99.90;;;;;;5049304;28;20502;-79
2022/04/07 06:25:16;;;;;;;1.07;1.00;;;10.40;99.90;;;;;;5051517;28;21043;-81
2022/04/07 06:27:44;;;;;;;1.30;1.20;;;10.50;99.90;;;;;;5040157;28;20575;-81
2022/04/07 06:30:13;;;;;;;0.83;0.70;;;10.60;99.90;;;;;;5030674;28;20456;-80
2022/04/07 06:32:40;;;;;;;1.20;1.00;;;10.70;99.90;;;;;;5061587;28;20484;-81
2022/04/07 06:35:10;;;;;;;0.97;0.97;;;10.70;99.90;;;;;;5075083;28;21231;-79
2022/04/07 06:37:51;;;;;;;0.90;0.90;;;10.80;99.90;;;;;;5059212;28;20442;-79
2022/04/07 06:40:20;;;;;;;2.10;1.20;;;10.90;99.90;;;;;;5083631;28;20456;-80
2022/04/07 06:42:47;;;;;;;1.00;1.00;;;10.90;99.90;;;;;;5064421;28;20488;-80
2022/04/07 06:45:14;;;;;;;1.37;1.03;;;10.90;99.90;;;;;;5065215;28;20460;-80
2022/04/07 06:47:41;;;;;;;1.13;1.00;;;10.90;99.90;;;;;;5052366;28;20520;-81
2022/04/07 06:50:11;;;;;;;1.10;1.00;;;10.90;99.90;;;;;;5052360;28;21209;-81
2022/04/07 06:52:38;;;;;;;1.03;0.83;;;10.90;99.90;;;;;;5049555;28;20526;-81
2022/04/07 06:55:06;;;;;;;1.73;0.97;;;11.00;99.90;;;;;;5063752;28;20456;-81
2022/04/07 06:57:47;;;;;;;1.20;1.00;;;11.00;99.90;;;;;;5062094;28;20898;-81
2022/04/07 07:00:15;;;;;;;2.03;0.93;;;11.00;99.90;;;;;;5048929;28;20819;-81
2022/04/07 07:02:44;;;;;;;1.00;1.00;;;11.00;99.90;;;;;;5048479;28;20492;-81
2022/04/07 07:05:12;;;;;;;1.07;0.97;;;11.00;99.90;;;;;;5064863;28;20463;-81
2022/04/07 07:07:39;;;;;;;0.97;0.80;;;11.00;99.90;;;;;;5062058;28;20499;-81
2022/04/07 07:10:07;;;;;;;1.30;1.00;;;11.10;99.90;;;;;;5063274;28;20462;-81
2022/04/07 07:12:33;;;;;;;1.07;0.80;;;11.10;99.90;;;;;;5068386;28;20492;-82
2022/04/07 07:15:01;;;;;;;2.63;0.80;;;11.10;99.90;;;;;;5068523;28;20559;-81
2022/04/07 07:17:33;;;;;;;2.60;0.90;;;11.10;99.90;;;;;;5061537;28;20453;-81
2022/04/07 07:20:02;;;;;;;1.10;1.00;;;11.20;99.90;;;;;;5053464;28;20962;-81
2022/04/07 07:22:31;;;;;;;1.53;1.13;;;11.10;99.90;;;;;;5057217;28;20477;-79
2022/04/07 07:24:58;;;;;;;0.80;0.80;;;11.20;99.90;;;;;;5057128;28;20461;-79
2022/04/07 07:27:25;;;;;;;0.90;0.80;;;11.20;99.90;;;;;;5057910;28;20492;-80
2022/04/07 07:29:52;;;;;;;0.70;0.70;;;11.20;99.90;;;;;;5057170;28;20571;-80
2022/04/07 07:32:19;;;;;;;1.70;0.93;;;11.30;99.90;;;;;;5060942;28;20995;-80
2022/04/07 07:34:46;;;;;;;1.80;1.03;;;11.30;99.90;;;;;;5062905;28;20531;-79
2022/04/07 07:37:13;;;;;;;1.17;1.10;;;11.30;99.90;;;;;;5062609;28;20455;-80
2022/04/07 07:39:41;;;;;;;0.70;0.70;;;11.30;99.90;;;;;;5053289;28;20515;-80
2022/04/07 07:42:08;;;;;;;0.80;0.80;;;11.40;99.90;;;;;;5053087;28;20495;-80
2022/04/07 07:44:35;;;;;;;0.80;0.60;;;11.40;99.90;;;;;;5054534;28;20460;-80
2022/04/07 07:47:02;;;;;;;0.97;0.87;;;11.40;99.90;;;;;;5067459;28;21018;-80
2022/04/07 07:49:29;;;;;;;1.57;0.70;;;11.40;99.90;;;;;;5044026;28;20549;-79
2022/04/07 07:51:55;;;;;;;1.50;1.00;;;11.50;99.90;;;;;;5058453;28;20838;-79
2022/04/07 07:54:22;;;;;;;1.83;0.90;;;11.50;99.90;;;;;;5050424;28;20452;-79
2022/04/07 07:56:51;;;;;;;1.00;0.90;;;11.50;99.90;;;;;;5050707;28;20453;-79
2022/04/07 07:59:20;;;;;;;1.13;0.90;;;11.50;99.90;;;;;;5032203;28;20469;-80
2022/04/07 08:01:48;;;;;;;0.90;0.70;;;11.50;99.90;;;;;;5031631;28;20493;-80
2022/04/07 08:04:15;;;;;;;0.80;0.80;;;11.50;99.90;;;;;;5043444;28;20457;-80
2022/04/07 08:06:42;;;;;;;0.80;0.80;;;11.50;99.90;;;;;;5050410;28;20453;-79
2022/04/07 08:09:10;;;;;;;4.10;1.00;;;11.50;99.90;;;;;;5035423;28;20979;-80
2022/04/07 08:11:37;;;;;;;1.90;1.10;;;11.50;99.90;;;;;;5032944;28;20488;-79
2022/04/07 08:14:05;;;;;;;1.17;1.07;;;11.50;99.90;;;;;;5051799;28;20453;-80
2022/04/07 08:16:32;;;;;;;2.33;0.90;;;11.50;99.90;;;;;;5072225;28;21015;-80
2022/04/07 08:18:59;;;;;;;1.20;1.10;;;11.50;99.90;;;;;;5072203;28;20571;-80
2022/04/07 08:21:25;;;;;;;5.13;0.93;;;11.60;99.90;;;;;;5072550;28;20472;-80
2022/04/07 08:23:53;;;;;;;3.70;1.20;;;11.60;99.90;;;;;;5072547;28;20456;-80
2022/04/07 08:26:20;;;;;;;1.10;0.93;;;11.60;99.90;;;;;;5072156;28;20517;-80
2022/04/07 08:28:47;;;;;;;1.43;1.30;;;11.70;99.90;;;;;;5058212;28;20495;-80
2022/04/07 08:31:16;;;;;;;1.30;1.20;;;11.70;99.90;;;;;;5052888;28;20858;-80
2022/04/07 08:33:43;;;;;;;2.30;1.10;;;11.80;99.90;;;;;;5062147;28;20460;-80
2022/04/07 08:36:09;;;;;;;1.10;1.00;;;11.80;99.90;;;;;;5072602;28;21179;-80
2022/04/07 08:38:36;;;;;;;1.20;1.00;;;11.80;99.90;;;;;;5058216;28;20449;-80
2022/04/07 08:41:08;;;;;;;1.23;1.13;;;11.80;99.90;;;;;;5051808;28;20465;-80
2022/04/07 08:43:38;;;;;;;2.00;0.90;;;11.90;99.90;;;;;;5057239;28;21307;-80
2022/04/07 08:46:08;;;;;;;1.37;0.90;;;11.90;99.90;;;;;;5051849;28;20870;-80
2022/04/07 08:48:42;;;;;;;2.20;1.20;;;12.00;99.90;;;;;;5038834;28;20551;-81
2022/04/07 08:51:09;;;;;;;1.67;1.00;;;12.00;99.90;;;;;;5036308;28;20485;-80
2022/04/07 08:53:37;;;;;;;3.63;0.90;;;12.00;99.90;;;;;;5057833;28;20814;-81
2022/04/07 08:56:06;;;;;;;1.63;1.00;;;12.10;99.90;;;;;;5062104;28;20972;-81
2022/04/07 08:58:34;;;;;;;3.53;1.53;;;12.10;99.90;;;;;;5041023;28;20509;-80
2022/04/07 09:01:01;;;;;;;1.87;1.10;;;12.10;99.90;;;;;;5032666;28;20581;-81
2022/04/07 09:03:28;;;;;;;1.50;0.97;;;12.00;99.90;;;;;;5046709;28;20527;-80
2022/04/07 09:05:59;;;;;;;1.47;1.03;;;12.10;99.90;;;;;;5073395;28;21135;-80
2022/04/07 09:08:31;;;;;;;1.17;1.00;;;12.10;99.90;;;;;;5072312;28;20503;-80
2022/04/07 09:10:59;;;;;;;1.67;0.93;;;12.10;99.90;;;;;;5063017;28;20468;-80
2022/04/07 09:13:30;;;;;;;1.00;0.83;;;12.10;99.90;;;;;;5064436;28;21017;-80
2022/04/07 09:15:57;;;;;;;1.73;1.00;;;12.10;99.90;;;;;;5075390;28;20484;-81
2022/04/07 09:18:25;;;;;;;1.13;0.80;;;12.00;99.90;;;;;;5064469;28;20461;-81
2022/04/07 09:20:52;;;;;;;2.10;0.93;;;12.10;99.90;;;;;;5056381;28;20492;-81
2022/04/07 09:23:20;;;;;;;3.43;0.90;;;12.20;99.90;;;;;;5064035;28;20444;-81
2022/04/07 09:25:49;;;;;;;3.13;1.03;;;12.20;99.90;;;;;;5078671;28;20462;-82
2022/04/07 09:28:32;;;;;;;2.70;0.90;;;12.20;99.90;;;;;;5049141;28;20485;-82
2022/04/07 09:31:00;;;;;;;4.97;0.83;;;12.30;99.90;;;;;;5037245;28;20519;-82
2022/04/07 09:33:28;;;;;;;1.40;0.87;;;12.40;99.90;;;;;;5050261;28;21356;-85
2022/04/07 09:36:00;;;;;;;1.23;1.00;;;12.40;99.90;;;;;;5077043;28;20459;-81
2022/04/07 09:38:29;;;;;;;1.60;0.80;;;12.40;99.90;;;;;;5072781;28;20467;-83
2022/04/07 09:41:03;;;;;;;1.73;0.93;;;12.50;99.90;;;;;;5073013;28;20478;-81
2022/04/07 09:43:30;;;;;;;0.70;0.70;;;12.50;99.90;;;;;;5069521;28;20455;-81
2022/04/07 09:45:57;;;;;;;1.10;0.90;;;12.50;99.90;;;;;;5053762;28;20455;-81
2022/04/07 09:48:27;;;;;;;1.07;0.77;;;12.40;99.90;;;;;;5041862;28;20485;-82
2022/04/07 09:51:04;;;;;;;0.80;0.80;;;12.40;99.90;;;;;;5056325;28;20464;-80
2022/04/07 09:53:37;;;;;;;1.00;0.90;;;12.30;99.90;;;;;;5059001;28;20456;-81
2022/04/07 09:56:04;;;;;;;1.53;0.93;;;12.20;99.90;;;;;;5052809;28;20506;-81
2022/04/07 09:58:32;;;;;;;3.03;1.00;;;12.10;99.90;;;;;;5045881;28;20826;-80
2022/04/07 10:01:01;;;;;;;0.83;0.80;;;12.00;99.90;;;;;;5055617;28;20489;-81
2022/04/07 10:03:30;;;;;;;0.83;0.80;;;12.00;99.90;;;;;;5061112;28;20487;-80
2022/04/07 10:05:58;;;;;;;1.17;0.87;;;12.00;99.90;;;;;;5072192;28;20451;-79
2022/04/07 10:08:25;;;;;;;1.53;0.90;;;12.00;99.90;;;;;;5061876;28;20572;-82
2022/04/07 10:10:54;;;;;;;2.07;1.03;;;12.00;99.90;;;;;;5053106;28;20471;-81
2022/04/07 10:13:21;;;;;;;0.90;0.70;;;12.00;99.90;;;;;;5052284;28;20485;-82
2022/04/07 10:15:48;;;;;;;2.20;0.83;;;12.00;99.90;;;;;;5051318;28;20483;-82
2022/04/07 10:18:24;;;;;;;0.90;0.90;;;12.00;99.90;;;;;;5052370;28;20514;-81
2022/04/07 10:20:57;;;;;;;0.80;0.70;;;12.10;99.90;;;;;;5052647;28;20657;-81
2022/04/07 10:23:37;;;;;;;2.50;0.80;;;12.10;99.90;;;;;;5052496;28;20472;-81
2022/04/07 10:26:09;;;;;;;1.73;1.10;;;12.10;99.90;;;;;;5051710;28;20463;-82
2022/04/07 10:28:36;;;;;;;0.80;0.80;;;12.20;99.90;;;;;;5051941;28;20501;-84
2022/04/07 10:31:14;;;;;;;2.00;0.80;;;12.20;99.90;;;;;;5051109;28;20920;-81
2022/04/07 10:33:44;;;;;;;4.33;0.73;;;12.30;99.90;;;;;;5050570;28;20456;-80
2022/04/07 10:36:17;;;;;;;0.87;0.70;;;12.30;99.90;;;;;;5050430;28;20459;-80
2022/04/07 10:38:49;;;;;;;5.23;0.80;;;12.40;99.90;;;;;;5050262;28;20519;-80
2022/04/07 10:41:48;;;;;;;1.07;0.90;;;12.40;99.90;;;;;;5051871;28;20534;-81
2022/04/07 10:44:17;;;;;;;1.43;0.60;;;12.40;99.90;;;;;;5049308;28;20975;-80
2022/04/07 10:46:44;;;;;;;0.90;0.70;;;12.90;99.90;;;;;;5051314;28;20893;-81
2022/04/07 10:49:12;;;;;;;0.83;0.70;;;12.80;99.90;;;;;;5050379;28;20516;-80
2022/04/07 10:51:43;;;;;;;3.40;0.87;;;12.70;99.90;;;;;;5051092;28;20593;-80
2022/04/07 10:54:11;;;;;;;0.70;0.70;;;12.70;99.90;;;;;;5061379;28;20448;-81
2022/04/07 10:56:39;;;;;;;1.10;0.60;;;12.70;99.90;;;;;;5072546;28;20491;-81
2022/04/07 10:59:19;;;;;;;1.57;1.00;;;12.80;99.90;;;;;;5073121;28;20448;-80
2022/04/07 11:02:02;;;;;;;1.20;0.70;;;12.80;99.90;;;;;;5070667;28;20494;-80
2022/04/07 11:04:40;;;;;;;0.83;0.80;;;12.80;99.90;;;;;;5061968;28;20948;-80
2022/04/07 11:07:13;;;;;;;0.70;0.70;;;12.80;99.90;;;;;;5055555;28;20935;-81
2022/04/07 11:09:45;;;;;;;0.70;0.60;;;12.80;99.90;;;;;;5048110;28;20496;-79
2022/04/07 11:12:19;;;;;;;3.70;0.70;;;12.90;99.90;;;;;;5050910;28;20472;-79
2022/04/07 11:14:49;;;;;;;0.80;0.80;;;12.90;99.90;;;;;;5052061;28;20539;-80
2022/04/07 11:17:26;;;;;;;1.03;0.90;;;12.90;99.90;;;;;;5051074;28;20779;-80
2022/04/07 11:20:05;;;;;;;1.53;0.90;;;13.00;99.90;;;;;;5046506;28;20449;-81
2022/04/07 11:22:50;;;;;;;1.93;0.83;;;12.90;99.90;;;;;;5043191;28;20473;-82
2022/04/07 11:25:21;;;;;;;1.53;0.80;;;13.00;99.90;;;;;;5058422;28;20547;-80
2022/04/07 11:28:09;;;;;;;2.00;0.90;;;13.00;99.90;;;;;;5051048;28;21207;-80
2022/04/07 11:30:43;;;;;;;2.17;0.80;;;13.00;99.90;;;;;;5048011;28;20861;-79
2022/04/07 11:33:39;;;;;;;1.83;0.70;;;13.10;99.90;;;;;;5055002;28;20515;-82
2022/04/07 11:36:30;;;;;;;2.50;0.70;;;13.10;99.90;;;;;;5054582;28;20464;-81
2022/04/07 11:38:59;;;;;;;0.80;0.80;;;13.20;99.90;;;;;;5041396;28;20484;-80
2022/04/07 11:41:33;;;;;;;0.80;0.80;;;13.20;99.90;;;;;;5051367;28;20477;-81
2022/04/07 11:44:07;;;;;;;0.97;0.77;;;13.30;99.90;;;;;;5061191;28;20442;-81
2022/04/07 11:46:36;;;;;;;2.97;0.60;;;13.30;99.90;;;;;;5044370;28;20502;-82
2022/04/07 11:49:04;;;;;;;1.67;0.77;;;13.40;99.90;;;;;;5046681;28;20531;-83
2022/04/07 11:51:35;;;;;;;1.20;0.70;;;13.40;99.90;;;;;;5048834;28;20481;-80
2022/04/07 11:54:03;;;;;;;3.03;0.70;;;13.50;99.90;;;;;;5048830;28;20461;-79
2022/04/07 11:56:31;;;;;;;0.77;0.60;;;13.60;99.90;;;;;;5048503;28;20467;-80
2022/04/07 11:59:03;;;;;;;3.20;0.73;;;13.60;99.90;;;;;;5048177;28;20878;-78
2022/04/07 12:01:30;;;;;;;1.43;0.60;;;13.70;99.90;;;;;;5050864;28;20513;-81
2022/04/07 12:04:01;;;;;;;0.80;0.60;;;13.70;99.90;;;;;;5070580;28;20565;-79
2022/04/07 12:06:29;;;;;;;0.60;0.60;;;13.70;99.90;;;;;;5068743;28;21379;-76
2022/04/07 12:08:57;;;;;;;0.80;0.70;;;13.80;99.90;;;;;;5045748;28;20489;-77
2022/04/07 12:11:25;;;;;;;1.50;0.60;;;13.80;99.90;;;;;;5030265;28;20557;-79
2022/04/07 12:13:54;;;;;;;1.00;0.60;;;13.80;99.90;;;;;;5055931;28;20452;-79
2022/04/07 12:16:23;;;;;;;1.17;0.60;;;13.80;99.90;;;;;;5065578;28;20441;-77
2022/04/07 12:18:55;;;;;;;1.17;0.70;;;13.80;99.90;;;;;;5049082;28;20896;-81
2022/04/07 12:21:25;;;;;;;0.77;0.77;;;13.80;99.90;;;;;;5049909;28;20473;-78
2022/04/07 12:24:08;;;;;;;0.90;0.80;;;13.80;99.90;;;;;;5050885;28;20437;-79
2022/04/07 12:26:41;;;;;;;2.50;0.80;;;13.80;99.90;;;;;;5055175;28;20527;-80
2022/04/07 12:29:08;;;;;;;0.90;0.80;;;13.80;99.90;;;;;;5054630;28;20903;-78
2022/04/07 12:31:35;;;;;;;1.23;0.70;;;13.70;99.90;;;;;;5067415;28;20475;-79
2022/04/07 12:34:13;;;;;;;1.07;0.70;;;13.70;99.90;;;;;;5049194;28;20461;-79
2022/04/07 12:36:42;;;;;;;2.83;0.60;;;13.70;99.90;;;;;;5042860;28;20817;-79
2022/04/07 12:39:11;;;;;;;1.20;0.80;;;13.70;99.90;;;;;;5029767;28;20538;-79
2022/04/07 12:41:43;;;;;;;0.60;0.60;;;13.70;99.90;;;;;;5030011;28;20474;-79
2022/04/07 12:44:11;;;;;;;1.63;0.73;;;13.70;99.90;;;;;;5030121;28;20450;-79
2022/04/07 12:46:51;;;;;;;4.23;0.60;;;13.70;99.90;;;;;;5029137;28;20460;-79
2022/04/07 12:49:25;;;;;;;1.17;0.90;;;13.70;99.90;;;;;;5030435;28;20504;-80
2022/04/07 12:52:06;;;;;;;4.23;0.87;;;13.70;99.90;;;;;;5045130;28;20525;-79
2022/04/07 12:54:34;;;;;;;1.67;0.60;;;13.80;99.90;;;;;;5069951;28;20451;-79
2022/04/07 12:57:12;;;;;;;0.60;0.60;;;13.80;99.90;;;;;;5069086;28;20977;-79
2022/04/07 12:59:39;;;;;;;0.60;0.60;;;13.90;99.90;;;;;;5070798;28;20538;-80
2022/04/07 13:02:07;;;;;;;0.83;0.80;;;13.90;99.90;;;;;;5071496;28;20556;-82
2022/04/07 13:04:47;;;;;;;0.70;0.70;;;13.90;99.90;;;;;;5069442;28;20436;-79
2022/04/07 13:07:16;;;;;;;0.87;0.80;;;13.80;99.90;;;;;;5059396;28;20528;-79
2022/04/07 13:09:43;;;;;;;0.70;0.70;;;13.80;99.90;;;;;;5039888;28;20576;-79
2022/04/07 13:12:10;;;;;;;1.00;0.90;;;13.90;99.90;;;;;;5057171;28;20512;-78
2022/04/07 13:14:37;;;;;;;0.87;0.60;;;13.90;99.90;;;;;;5079654;28;20522;-78
2022/04/07 13:17:05;;;;;;;0.60;0.60;;;13.90;99.90;;;;;;5059134;28;20559;-78
2022/04/07 13:19:32;;;;;;;0.60;0.60;;;13.90;99.90;;;;;;5058986;28;20449;-77
2022/04/07 13:22:01;;;;;;;0.83;0.70;;;13.80;99.90;;;;;;5063052;28;20480;-78
2022/04/07 13:24:30;;;;;;;0.80;0.80;;;13.90;99.90;;;;;;5066878;28;20464;-78
2022/04/07 13:26:57;;;;;;;0.70;0.70;;;13.90;99.90;;;;;;5028295;28;20493;-78
2022/04/07 13:29:24;;;;;;;0.70;0.70;;;13.90;99.90;;;;;;5028279;28;20497;-78
2022/04/07 13:31:51;;;;;;;1.10;0.80;;;13.90;99.90;;;;;;5041500;28;20474;-77
2022/04/07 13:34:19;;;;;;;1.63;0.70;;;13.90;99.90;;;;;;5055976;28;20460;-78
2022/04/07 13:36:46;;;;;;;0.60;0.60;;;13.90;99.90;;;;;;5048618;28;20530;-78
2022/04/07 13:39:13;;;;;;;2.30;0.80;;;13.80;99.90;;;;;;5047014;28;20451;-78
2022/04/07 13:41:41;;;;;;;1.87;0.90;;;13.80;99.90;;;;;;5042387;28;20527;-79
2022/04/07 13:44:08;;;;;;;1.80;0.60;;;13.90;99.90;;;;;;5050880;28;20815;-78
2022/04/07 13:46:35;;;;;;;1.07;0.70;;;13.90;99.90;;;;;;5043393;28;20515;-78
2022/04/07 13:49:02;;;;;;;4.40;0.87;;;13.80;99.90;;;;;;5059025;28;20516;-79
2022/04/07 13:51:29;;;;;;;5.40;0.80;;;13.80;99.90;;;;;;5057544;28;20469;-78
2022/04/07 13:53:56;;;;;;;0.80;0.70;;;13.80;99.90;;;;;;5067572;28;20491;-79
2022/04/07 13:56:23;;;;;;;2.10;1.10;;;13.80;99.90;;;;;;5051991;28;20541;-78
2022/04/07 13:58:52;;;;;;;2.50;1.00;;;13.80;99.90;;;;;;5048935;28;20460;-78
2022/04/07 14:01:21;;;;;;;0.73;0.70;;;13.80;99.90;;;;;;5048539;28;21015;-78
2022/04/07 14:03:49;;;;;;;0.90;0.67;;;13.80;99.90;;;;;;5053881;28;20456;-78
2022/04/07 14:06:16;;;;;;;1.53;0.80;;;13.70;99.90;;;;;;5053353;28;20572;-78
2022/04/07 14:08:43;;;;;;;1.47;0.90;;;13.70;99.90;;;;;;5032182;28;21028;-78
2022/04/07 14:11:10;;;;;;;0.70;0.70;;;13.70;99.90;;;;;;5057569;28;20550;-75
2022/04/07 14:13:36;;;;;;;0.90;0.90;;;13.70;99.90;;;;;;5059982;28;20458;-79
2022/04/07 14:16:05;;;;;;;0.80;0.80;;;13.70;99.90;;;;;;5058349;28;20953;-77
2022/04/07 14:18:32;;;;;;;1.80;0.70;;;13.70;99.90;;;;;;5048209;28;20455;-78
2022/04/07 14:20:59;;;;;;;1.10;0.83;;;13.60;99.90;;;;;;5047120;28;20559;-79
2022/04/07 14:23:26;;;;;;;2.30;0.70;;;13.70;99.90;;;;;;5048946;28;21271;-79
2022/04/07 14:25:53;;;;;;;0.80;0.80;;;13.70;99.90;;;;;;5056918;28;20576;-79
2022/04/07 14:28:20;;;;;;;0.87;0.80;;;13.70;99.90;;;;;;5047063;28;20818;-79
2022/04/07 14:30:49;;;;;;;0.90;0.90;;;13.70;99.90;;;;;;5047987;28;20497;-81
2022/04/07 14:33:17;;;;;;;1.60;0.60;;;13.70;99.90;;;;;;5049173;28;20491;-79
2022/04/07 14:35:44;;;;;;;2.70;1.00;;;13.70;99.90;;;;;;5029390;28;20462;-80
2022/04/07 14:38:12;;;;;;;1.37;0.90;;;13.80;99.90;;;;;;5033110;28;20488;-80
2022/04/07 14:40:41;;;;;;;1.33;0.80;;;13.80;99.90;;;;;;5032857;28;20474;-79
2022/04/07 14:43:08;;;;;;;1.90;0.60;;;13.80;99.90;;;;;;5032866;28;20457;-79
2022/04/07 14:45:37;;;;;;;1.67;0.70;;;13.80;99.90;;;;;;5062221;28;20547;-79
2022/04/07 14:48:05;;;;;;;1.03;0.80;;;13.90;99.90;;;;;;5052425;28;20452;-78
2022/04/07 14:50:33;;;;;;;3.53;0.70;;;13.90;99.90;;;;;;5065215;28;20564;-79
2022/04/07 14:53:00;;;;;;;4.00;0.70;;;13.90;99.90;;;;;;5072535;28;20456;-79
2022/04/07 14:55:27;;;;;;;0.80;0.70;;;13.90;99.90;;;;;;5065415;28;20468;-79
2022/04/07 14:57:55;;;;;;;1.03;0.80;;;13.90;99.90;;;;;;5051992;28;20456;-78
2022/04/07 15:00:22;;;;;;;2.13;0.83;;;13.90;99.90;;;;;;5052091;28;20444;-78
2022/04/07 15:02:49;;;;;;;0.80;0.80;;;13.90;99.90;;;;;;5052570;28;20441;-78
2022/04/07 15:05:16;;;;;;;1.30;0.83;;;13.90;99.90;;;;;;5063928;28;20573;-79
2022/04/07 15:07:44;;;;;;;0.90;0.70;;;13.90;99.90;;;;;;5057741;28;20448;-79
2022/04/07 15:10:11;;;;;;;0.83;0.70;;;14.00;99.90;;;;;;5070531;28;20495;-79
2022/04/07 15:12:38;;;;;;;0.80;0.80;;;14.00;99.90;;;;;;5072081;28;20567;-79
2022/04/07 15:15:06;;;;;;;0.80;0.80;;;14.00;99.90;;;;;;5069923;28;20463;-79
2022/04/07 15:17:33;;;;;;;1.40;1.00;;;14.00;99.90;;;;;;5051855;28;20904;-79
2022/04/07 15:19:59;;;;;;;0.93;0.90;;;14.00;99.90;;;;;;5052097;28;20476;-79
2022/04/07 15:22:26;;;;;;;0.70;0.70;;;14.00;99.90;;;;;;5052161;28;20465;-79
2022/04/07 15:24:55;;;;;;;0.90;0.80;;;14.00;99.90;;;;;;5064149;28;20827;-79
2022/04/07 15:27:21;;;;;;;1.00;0.80;;;14.00;99.90;;;;;;5031602;28;20552;-79
2022/04/07 15:29:48;;;;;;;1.30;1.13;;;14.00;99.90;;;;;;5031814;28;20525;-79
2022/04/07 15:32:16;;;;;;;1.00;0.80;;;14.00;99.90;;;;;;5031634;28;20469;-79
2022/04/07 15:34:43;;;;;;;1.17;0.80;;;13.90;99.90;;;;;;5060678;28;20459;-79
2022/04/07 15:37:11;;;;;;;1.70;1.00;;;13.90;99.90;;;;;;5052835;28;20472;-79
2022/04/07 15:39:39;;;;;;;1.20;1.00;;;14.00;99.90;;;;;;5053375;28;20477;-79
2022/04/07 15:42:07;;;;;;;0.80;0.80;;;14.00;99.90;;;;;;5053036;28;20505;-79
2022/04/07 15:44:34;;;;;;;0.73;0.70;;;13.90;99.90;;;;;;5065003;28;20451;-79
2022/04/07 15:47:01;;;;;;;1.10;1.00;;;13.90;99.90;;;;;;5055391;28;20522;-79
2022/04/07 15:49:28;;;;;;;1.97;0.90;;;13.90;99.90;;;;;;5053071;28;20564;-79
2022/04/07 15:51:55;;;;;;;2.90;0.90;;;13.90;99.90;;;;;;5052572;28;20507;-79
2022/04/07 15:54:21;;;;;;;2.43;1.00;;;13.90;99.90;;;;;;5062451;28;20462;-79
2022/04/07 15:56:48;;;;;;;1.73;0.93;;;13.80;99.90;;;;;;5054608;28;20467;-79
2022/04/07 15:59:16;;;;;;;2.40;0.90;;;13.60;99.90;;;;;;5050920;28;20453;-80
2022/04/07 16:01:44;;;;;;;1.40;1.07;;;13.50;99.90;;;;;;5050211;28;21171;-80
2022/04/07 16:04:10;;;;;;;0.90;0.80;;;13.30;99.90;;;;;;5043724;28;20925;-80
2022/04/07 16:06:37;;;;;;;1.27;1.10;;;13.20;99.90;;;;;;5056643;28;20463;-80
2022/04/07 16:09:05;;;;;;;1.30;0.90;;;13.00;99.90;;;;;;5049441;28;21249;-81
2022/04/07 16:11:31;;;;;;;2.47;1.30;;;12.90;99.90;;;;;;5050447;28;20503;-81
2022/04/07 16:13:58;;;;;;;3.83;1.13;;;12.70;99.90;;;;;;5051521;28;20485;-81
2022/04/07 16:16:27;;;;;;;4.10;1.30;;;12.50;99.90;;;;;;5040145;28;20461;-81
2022/04/07 16:18:54;;;;;;;1.50;1.27;;;12.40;99.90;;;;;;5030238;28;20454;-82
2022/04/07 16:21:21;;;;;;;1.97;1.17;;;12.20;99.90;;;;;;5030538;28;20484;-81
2022/04/07 16:23:48;;;;;;;5.70;1.13;;;12.10;99.90;;;;;;5032996;28;20521;-80
2022/04/07 16:26:15;;;;;;;4.00;1.20;;;12.00;99.90;;;;;;5043405;28;20460;-83
2022/04/07 16:28:44;;;;;;;1.10;1.00;;;11.90;99.90;;;;;;5033195;28;20524;-80
2022/04/07 16:31:10;;;;;;;3.67;1.50;;;11.70;99.90;;;;;;5032097;28;20505;-80
2022/04/07 16:33:39;;;;;;;6.40;2.00;;;11.70;99.90;;;;;;5044943;28;20510;-80
2022/04/07 16:36:06;;;;;;;6.40;1.53;;;11.70;99.90;;;;;;5057063;28;20444;-80
2022/04/07 16:38:33;;;;;;;1.27;1.00;;;11.50;99.90;;;;;;5063937;28;20452;-79
2022/04/07 16:41:00;;;;;;;2.20;1.47;;;11.20;99.90;;;;;;5070078;28;20991;-78
2022/04/07 16:43:28;;;;;;;1.13;1.00;;;10.90;99.90;;;;;;5068510;28;20452;-80
2022/04/07 16:45:55;;;;;;;4.63;1.77;;;10.80;99.90;;;;;;5056403;28;20490;-80
2022/04/07 16:48:22;;;;;;;2.40;1.10;;;10.70;99.90;;;;;;5029105;28;20536;-79
2022/04/07 16:50:50;;;;;;;1.53;1.10;;;10.50;99.90;;;;;;5030114;28;20502;-80
2022/04/07 16:53:17;;;;;;;2.33;1.50;;;10.40;99.90;;;;;;5033844;28;20459;-78
2022/04/07 16:55:44;;;;;;;2.80;1.40;;;10.40;99.90;;;;;;5049310;28;20547;-77